Terminal Aerodrome Forecast
Issued by NWS

Home | Current Version | Previous Version | Graphics & Text | Print | Product List | Glossary On
Versions: 1 2 3 4 5 6 7 8 9 10 11 12 13 14 15 16 17
000
FTUS43 KBIS 280103 AAA
TAFJMS
TAF AMD
KJMS 280103Z 2801/2824 18005KT P6SM FEW250
     FM280500 19003KT 5SM BR SKC
      TEMPO 2809/2813 2SM BR
     FM281800 20010KT P6SM SCT250=

USA.gov is the U.S. government's official web portal to all federal, state and local government web resources and services.